sensor_id;sensor_type;location;lat;lon;timestamp;P1;durP1;ratioP1;P2;durP2;ratioP2
703;SDS011;335;48.694;9.120;2023-11-21T00:00:48;3.27;;;2.93;;
703;SDS011;335;48.694;9.120;2023-11-21T00:03:14;3.97;;;2.53;;
703;SDS011;335;48.694;9.120;2023-11-21T00:05:42;3.37;;;3.07;;
703;SDS011;335;48.694;9.120;2023-11-21T00:08:08;5.53;;;2.73;;
703;SDS011;335;48.694;9.120;2023-11-21T00:10:34;3.20;;;3.00;;
703;SDS011;335;48.694;9.120;2023-11-21T00:12:59;3.03;;;2.83;;
703;SDS011;335;48.694;9.120;2023-11-21T00:15:27;2.00;;;1.90;;
703;SDS011;335;48.694;9.120;2023-11-21T00:17:53;2.30;;;1.90;;
703;SDS011;335;48.694;9.120;2023-11-21T00:20:18;2.60;;;2.40;;
703;SDS011;335;48.694;9.120;2023-11-21T00:22:43;2.10;;;1.90;;
703;SDS011;335;48.694;9.120;2023-11-21T00:25:09;3.37;;;2.60;;
703;SDS011;335;48.694;9.120;2023-11-21T00:27:37;4.70;;;2.47;;
703;SDS011;335;48.694;9.120;2023-11-21T00:30:03;3.27;;;1.70;;
703;SDS011;335;48.694;9.120;2023-11-21T00:32:32;4.00;;;2.50;;
703;SDS011;335;48.694;9.120;2023-11-21T00:34:57;2.73;;;1.90;;
703;SDS011;335;48.694;9.120;2023-11-21T00:37:24;3.10;;;1.63;;
703;SDS011;335;48.694;9.120;2023-11-21T00:39:49;4.13;;;2.17;;
703;SDS011;335;48.694;9.120;2023-11-21T00:42:15;1.97;;;1.70;;
703;SDS011;335;48.694;9.120;2023-11-21T00:44:40;1.70;;;1.57;;
703;SDS011;335;48.694;9.120;2023-11-21T00:47:05;4.07;;;2.30;;
703;SDS011;335;48.694;9.120;2023-11-21T00:49:31;2.50;;;2.00;;
703;SDS011;335;48.694;9.120;2023-11-21T00:51:57;2.20;;;1.67;;
703;SDS011;335;48.694;9.120;2023-11-21T00:54:23;3.87;;;1.73;;
703;SDS011;335;48.694;9.120;2023-11-21T00:56:48;3.70;;;1.90;;
703;SDS011;335;48.694;9.120;2023-11-21T00:59:13;2.70;;;1.60;;
703;SDS011;335;48.694;9.120;2023-11-21T01:01:39;5.10;;;1.70;;
703;SDS011;335;48.694;9.120;2023-11-21T01:04:04;5.80;;;2.00;;
703;SDS011;335;48.694;9.120;2023-11-21T01:06:31;2.77;;;2.00;;
703;SDS011;335;48.694;9.120;2023-11-21T01:08:57;4.37;;;1.73;;
703;SDS011;335;48.694;9.120;2023-11-21T01:11:22;1.50;;;1.40;;
703;SDS011;335;48.694;9.120;2023-11-21T01:13:47;4.10;;;2.10;;
703;SDS011;335;48.694;9.120;2023-11-21T01:16:12;2.07;;;1.70;;
703;SDS011;335;48.694;9.120;2023-11-21T01:18:38;3.33;;;1.87;;
703;SDS011;335;48.694;9.120;2023-11-21T01:21:03;1.97;;;1.80;;
703;SDS011;335;48.694;9.120;2023-11-21T01:23:29;2.30;;;1.73;;
703;SDS011;335;48.694;9.120;2023-11-21T01:25:55;2.17;;;1.70;;
703;SDS011;335;48.694;9.120;2023-11-21T01:28:21;2.07;;;1.87;;
703;SDS011;335;48.694;9.120;2023-11-21T01:30:46;2.13;;;2.03;;
703;SDS011;335;48.694;9.120;2023-11-21T01:33:11;1.57;;;1.43;;
703;SDS011;335;48.694;9.120;2023-11-21T01:35:37;2.47;;;1.90;;
703;SDS011;335;48.694;9.120;2023-11-21T01:38:02;5.40;;;2.10;;
703;SDS011;335;48.694;9.120;2023-11-21T01:40:28;5.50;;;1.57;;
703;SDS011;335;48.694;9.120;2023-11-21T01:42:55;1.70;;;1.50;;
703;SDS011;335;48.694;9.120;2023-11-21T01:45:21;1.70;;;1.60;;
703;SDS011;335;48.694;9.120;2023-11-21T01:47:46;4.60;;;1.00;;
703;SDS011;335;48.694;9.120;2023-11-21T01:50:15;2.57;;;1.30;;
703;SDS011;335;48.694;9.120;2023-11-21T01:52:42;1.70;;;1.20;;
703;SDS011;335;48.694;9.120;2023-11-21T01:55:09;1.10;;;0.97;;
703;SDS011;335;48.694;9.120;2023-11-21T01:57:35;2.20;;;1.33;;
703;SDS011;335;48.694;9.120;2023-11-21T02:00:02;2.73;;;1.10;;
703;SDS011;335;48.694;9.120;2023-11-21T02:02:41;1.17;;;0.70;;
703;SDS011;335;48.694;9.120;2023-11-21T02:05:08;2.20;;;1.83;;
703;SDS011;335;48.694;9.120;2023-11-21T02:07:35;1.27;;;1.20;;
703;SDS011;335;48.694;9.120;2023-11-21T02:10:01;2.30;;;1.43;;
703;SDS011;335;48.694;9.120;2023-11-21T02:12:26;2.50;;;1.27;;
703;SDS011;335;48.694;9.120;2023-11-21T02:14:52;1.13;;;1.00;;
703;SDS011;335;48.694;9.120;2023-11-21T02:17:18;1.43;;;1.17;;
703;SDS011;335;48.694;9.120;2023-11-21T02:19:43;1.60;;;0.80;;
703;SDS011;335;48.694;9.120;2023-11-21T02:22:09;2.00;;;0.90;;
703;SDS011;335;48.694;9.120;2023-11-21T02:24:35;1.20;;;1.10;;
703;SDS011;335;48.694;9.120;2023-11-21T02:27:01;1.00;;;1.00;;
703;SDS011;335;48.694;9.120;2023-11-21T02:29:27;1.47;;;1.37;;
703;SDS011;335;48.694;9.120;2023-11-21T02:31:53;1.10;;;1.00;;
703;SDS011;335;48.694;9.120;2023-11-21T02:34:19;3.40;;;1.00;;
703;SDS011;335;48.694;9.120;2023-11-21T02:36:45;4.07;;;1.00;;
703;SDS011;335;48.694;9.120;2023-11-21T02:39:12;2.00;;;0.90;;
703;SDS011;335;48.694;9.120;2023-11-21T02:41:38;0.60;;;0.60;;
703;SDS011;335;48.694;9.120;2023-11-21T02:44:04;1.47;;;0.83;;
703;SDS011;335;48.694;9.120;2023-11-21T02:46:31;0.80;;;0.60;;
703;SDS011;335;48.694;9.120;2023-11-21T02:48:58;3.60;;;1.13;;
703;SDS011;335;48.694;9.120;2023-11-21T02:51:27;1.47;;;1.00;;
703;SDS011;335;48.694;9.120;2023-11-21T02:53:52;5.93;;;1.60;;
703;SDS011;335;48.694;9.120;2023-11-21T02:56:17;0.90;;;0.63;;
703;SDS011;335;48.694;9.120;2023-11-21T02:58:43;0.90;;;0.90;;
703;SDS011;335;48.694;9.120;2023-11-21T03:01:09;1.23;;;0.70;;
703;SDS011;335;48.694;9.120;2023-11-21T03:03:35;1.37;;;0.70;;
703;SDS011;335;48.694;9.120;2023-11-21T03:06:04;1.17;;;0.60;;
703;SDS011;335;48.694;9.120;2023-11-21T03:08:29;1.77;;;0.73;;
703;SDS011;335;48.694;9.120;2023-11-21T03:10:54;3.40;;;0.90;;
703;SDS011;335;48.694;9.120;2023-11-21T03:13:21;1.70;;;1.07;;
703;SDS011;335;48.694;9.120;2023-11-21T03:15:46;1.57;;;0.80;;
703;SDS011;335;48.694;9.120;2023-11-21T03:18:12;2.70;;;0.77;;
703;SDS011;335;48.694;9.120;2023-11-21T03:20:38;0.80;;;0.70;;
703;SDS011;335;48.694;9.120;2023-11-21T03:23:03;2.30;;;0.80;;
703;SDS011;335;48.694;9.120;2023-11-21T03:25:30;1.13;;;0.67;;
703;SDS011;335;48.694;9.120;2023-11-21T03:27:56;0.70;;;0.70;;
703;SDS011;335;48.694;9.120;2023-11-21T03:30:21;2.73;;;1.60;;
703;SDS011;335;48.694;9.120;2023-11-21T03:32:47;0.80;;;0.67;;
703;SDS011;335;48.694;9.120;2023-11-21T03:35:12;1.17;;;0.80;;
703;SDS011;335;48.694;9.120;2023-11-21T03:37:37;2.33;;;0.60;;
703;SDS011;335;48.694;9.120;2023-11-21T03:40:06;0.70;;;0.70;;
703;SDS011;335;48.694;9.120;2023-11-21T03:42:33;0.80;;;0.80;;
703;SDS011;335;48.694;9.120;2023-11-21T03:44:58;0.93;;;0.87;;
703;SDS011;335;48.694;9.120;2023-11-21T03:47:24;1.07;;;0.70;;
703;SDS011;335;48.694;9.120;2023-11-21T03:49:49;2.10;;;0.53;;
703;SDS011;335;48.694;9.120;2023-11-21T03:52:14;0.70;;;0.70;;
703;SDS011;335;48.694;9.120;2023-11-21T03:54:40;0.90;;;0.90;;
703;SDS011;335;48.694;9.120;2023-11-21T03:57:05;0.80;;;0.50;;
703;SDS011;335;48.694;9.120;2023-11-21T03:59:31;1.00;;;0.60;;
703;SDS011;335;48.694;9.120;2023-11-21T04:01:56;0.50;;;0.50;;
703;SDS011;335;48.694;9.120;2023-11-21T04:04:22;0.90;;;0.50;;
703;SDS011;335;48.694;9.120;2023-11-21T04:06:47;1.90;;;1.00;;
703;SDS011;335;48.694;9.120;2023-11-21T04:09:13;1.07;;;0.60;;
703;SDS011;335;48.694;9.120;2023-11-21T04:11:38;0.73;;;0.40;;
703;SDS011;335;48.694;9.120;2023-11-21T04:14:03;0.93;;;0.80;;
703;SDS011;335;48.694;9.120;2023-11-21T04:16:29;0.70;;;0.70;;
703;SDS011;335;48.694;9.120;2023-11-21T04:18:54;0.80;;;0.60;;
703;SDS011;335;48.694;9.120;2023-11-21T04:21:19;0.87;;;0.50;;
703;SDS011;335;48.694;9.120;2023-11-21T04:23:45;0.60;;;0.60;;
703;SDS011;335;48.694;9.120;2023-11-21T04:26:10;0.43;;;0.40;;
703;SDS011;335;48.694;9.120;2023-11-21T04:28:35;1.13;;;0.47;;
703;SDS011;335;48.694;9.120;2023-11-21T04:31:01;2.23;;;0.30;;
703;SDS011;335;48.694;9.120;2023-11-21T04:33:27;1.10;;;0.97;;
703;SDS011;335;48.694;9.120;2023-11-21T04:35:53;2.53;;;0.77;;
703;SDS011;335;48.694;9.120;2023-11-21T04:38:18;0.67;;;0.67;;
703;SDS011;335;48.694;9.120;2023-11-21T04:40:44;1.57;;;0.57;;
703;SDS011;335;48.694;9.120;2023-11-21T04:43:09;0.60;;;0.50;;
703;SDS011;335;48.694;9.120;2023-11-21T04:45:34;1.77;;;0.67;;
703;SDS011;335;48.694;9.120;2023-11-21T04:48:00;0.93;;;0.40;;
703;SDS011;335;48.694;9.120;2023-11-21T04:50:25;0.50;;;0.50;;
703;SDS011;335;48.694;9.120;2023-11-21T04:52:52;0.83;;;0.50;;
703;SDS011;335;48.694;9.120;2023-11-21T04:55:17;1.60;;;0.43;;
703;SDS011;335;48.694;9.120;2023-11-21T04:57:42;1.60;;;0.30;;
703;SDS011;335;48.694;9.120;2023-11-21T05:00:11;0.70;;;0.67;;
703;SDS011;335;48.694;9.120;2023-11-21T05:02:37;1.80;;;0.60;;
703;SDS011;335;48.694;9.120;2023-11-21T05:05:03;0.70;;;0.47;;
703;SDS011;335;48.694;9.120;2023-11-21T05:07:30;0.63;;;0.60;;
703;SDS011;335;48.694;9.120;2023-11-21T05:09:56;0.50;;;0.33;;
703;SDS011;335;48.694;9.120;2023-11-21T05:12:22;1.47;;;0.60;;
703;SDS011;335;48.694;9.120;2023-11-21T05:14:48;0.90;;;0.40;;
703;SDS011;335;48.694;9.120;2023-11-21T05:17:14;0.70;;;0.60;;
703;SDS011;335;48.694;9.120;2023-11-21T05:19:39;1.00;;;0.63;;
703;SDS011;335;48.694;9.120;2023-11-21T05:22:05;1.80;;;0.40;;
703;SDS011;335;48.694;9.120;2023-11-21T05:24:31;0.63;;;0.63;;
703;SDS011;335;48.694;9.120;2023-11-21T05:26:56;1.90;;;0.40;;
703;SDS011;335;48.694;9.120;2023-11-21T05:29:21;0.30;;;0.27;;
703;SDS011;335;48.694;9.120;2023-11-21T05:31:47;0.80;;;0.40;;
703;SDS011;335;48.694;9.120;2023-11-21T05:34:12;0.70;;;0.50;;
703;SDS011;335;48.694;9.120;2023-11-21T05:36:38;0.70;;;0.33;;
703;SDS011;335;48.694;9.120;2023-11-21T05:39:03;2.33;;;0.50;;
703;SDS011;335;48.694;9.120;2023-11-21T05:41:29;0.60;;;0.60;;
703;SDS011;335;48.694;9.120;2023-11-21T05:43:55;0.30;;;0.30;;
703;SDS011;335;48.694;9.120;2023-11-21T05:46:20;1.70;;;0.60;;
703;SDS011;335;48.694;9.120;2023-11-21T05:48:45;2.10;;;1.10;;
703;SDS011;335;48.694;9.120;2023-11-21T05:51:11;0.80;;;0.80;;
703;SDS011;335;48.694;9.120;2023-11-21T05:53:37;0.60;;;0.60;;
703;SDS011;335;48.694;9.120;2023-11-21T05:56:03;0.93;;;0.90;;
703;SDS011;335;48.694;9.120;2023-11-21T05:58:28;0.70;;;0.70;;
703;SDS011;335;48.694;9.120;2023-11-21T06:00:54;1.20;;;1.10;;
703;SDS011;335;48.694;9.120;2023-11-21T06:03:19;1.07;;;0.73;;
703;SDS011;335;48.694;9.120;2023-11-21T06:05:44;0.93;;;0.67;;
703;SDS011;335;48.694;9.120;2023-11-21T06:08:10;1.07;;;0.70;;
703;SDS011;335;48.694;9.120;2023-11-21T06:10:35;0.67;;;0.67;;
703;SDS011;335;48.694;9.120;2023-11-21T06:13:01;0.97;;;0.90;;
703;SDS011;335;48.694;9.120;2023-11-21T06:15:26;1.00;;;0.97;;
703;SDS011;335;48.694;9.120;2023-11-21T06:17:51;0.60;;;0.60;;
703;SDS011;335;48.694;9.120;2023-11-21T06:20:18;1.17;;;0.90;;
703;SDS011;335;48.694;9.120;2023-11-21T06:22:44;1.17;;;1.07;;
703;SDS011;335;48.694;9.120;2023-11-21T06:25:11;0.90;;;0.90;;
703;SDS011;335;48.694;9.120;2023-11-21T06:27:47;1.77;;;0.80;;
703;SDS011;335;48.694;9.120;2023-11-21T06:30:13;1.03;;;0.90;;
703;SDS011;335;48.694;9.120;2023-11-21T06:32:40;0.90;;;0.90;;
703;SDS011;335;48.694;9.120;2023-11-21T06:35:06;0.93;;;0.90;;
703;SDS011;335;48.694;9.120;2023-11-21T06:37:31;1.70;;;1.37;;
703;SDS011;335;48.694;9.120;2023-11-21T06:39:57;1.60;;;1.20;;
703;SDS011;335;48.694;9.120;2023-11-21T06:42:24;1.27;;;1.10;;
703;SDS011;335;48.694;9.120;2023-11-21T06:44:50;2.97;;;1.37;;
703;SDS011;335;48.694;9.120;2023-11-21T06:47:19;1.37;;;1.27;;
703;SDS011;335;48.694;9.120;2023-11-21T06:49:49;1.90;;;1.80;;
703;SDS011;335;48.694;9.120;2023-11-21T06:52:15;1.80;;;1.10;;
703;SDS011;335;48.694;9.120;2023-11-21T06:54:40;1.10;;;1.07;;
703;SDS011;335;48.694;9.120;2023-11-21T06:57:06;2.50;;;1.60;;
703;SDS011;335;48.694;9.120;2023-11-21T06:59:31;1.30;;;1.30;;
703;SDS011;335;48.694;9.120;2023-11-21T07:01:57;1.13;;;1.10;;
703;SDS011;335;48.694;9.120;2023-11-21T07:04:22;1.13;;;1.13;;
703;SDS011;335;48.694;9.120;2023-11-21T07:06:47;2.73;;;1.00;;
703;SDS011;335;48.694;9.120;2023-11-21T07:09:13;1.57;;;0.90;;
703;SDS011;335;48.694;9.120;2023-11-21T07:11:38;1.00;;;1.00;;
703;SDS011;335;48.694;9.120;2023-11-21T07:14:04;1.30;;;1.20;;
703;SDS011;335;48.694;9.120;2023-11-21T07:16:35;1.43;;;1.10;;
703;SDS011;335;48.694;9.120;2023-11-21T07:19:04;1.10;;;1.10;;
703;SDS011;335;48.694;9.120;2023-11-21T07:21:33;1.10;;;1.10;;
703;SDS011;335;48.694;9.120;2023-11-21T07:24:00;2.17;;;1.60;;
703;SDS011;335;48.694;9.120;2023-11-21T07:26:26;2.70;;;1.70;;
703;SDS011;335;48.694;9.120;2023-11-21T07:28:52;1.80;;;1.80;;
703;SDS011;335;48.694;9.120;2023-11-21T07:31:17;2.40;;;2.30;;
703;SDS011;335;48.694;9.120;2023-11-21T07:33:44;1.57;;;1.20;;
703;SDS011;335;48.694;9.120;2023-11-21T07:36:12;1.60;;;1.50;;
703;SDS011;335;48.694;9.120;2023-11-21T07:38:37;1.33;;;1.30;;
703;SDS011;335;48.694;9.120;2023-11-21T07:41:03;1.40;;;1.17;;
703;SDS011;335;48.694;9.120;2023-11-21T07:43:28;1.47;;;1.37;;
703;SDS011;335;48.694;9.120;2023-11-21T07:45:59;1.40;;;1.30;;
703;SDS011;335;48.694;9.120;2023-11-21T07:48:25;1.43;;;1.33;;
703;SDS011;335;48.694;9.120;2023-11-21T07:50:51;1.30;;;1.30;;
703;SDS011;335;48.694;9.120;2023-11-21T07:53:16;1.47;;;1.27;;
703;SDS011;335;48.694;9.120;2023-11-21T07:55:41;1.40;;;1.30;;
703;SDS011;335;48.694;9.120;2023-11-21T07:58:07;3.33;;;1.23;;
703;SDS011;335;48.694;9.120;2023-11-21T08:00:32;1.20;;;1.10;;
703;SDS011;335;48.694;9.120;2023-11-21T08:03:00;1.33;;;1.33;;
703;SDS011;335;48.694;9.120;2023-11-21T08:05:26;0.90;;;0.90;;
703;SDS011;335;48.694;9.120;2023-11-21T08:07:51;1.43;;;1.33;;
703;SDS011;335;48.694;9.120;2023-11-21T08:10:16;1.73;;;1.20;;
703;SDS011;335;48.694;9.120;2023-11-21T08:12:42;1.07;;;1.07;;
703;SDS011;335;48.694;9.120;2023-11-21T08:15:08;1.53;;;1.33;;
703;SDS011;335;48.694;9.120;2023-11-21T08:17:34;1.33;;;1.23;;
703;SDS011;335;48.694;9.120;2023-11-21T08:20:00;1.00;;;1.00;;
703;SDS011;335;48.694;9.120;2023-11-21T08:22:25;1.33;;;1.23;;
703;SDS011;335;48.694;9.120;2023-11-21T08:24:51;1.30;;;1.23;;
703;SDS011;335;48.694;9.120;2023-11-21T08:27:16;1.10;;;1.10;;
703;SDS011;335;48.694;9.120;2023-11-21T08:29:42;1.10;;;1.00;;
703;SDS011;335;48.694;9.120;2023-11-21T08:32:08;1.20;;;1.20;;
703;SDS011;335;48.694;9.120;2023-11-21T08:34:33;1.10;;;1.10;;
703;SDS011;335;48.694;9.120;2023-11-21T08:36:58;0.97;;;0.97;;
703;SDS011;335;48.694;9.120;2023-11-21T08:39:24;1.03;;;1.03;;
703;SDS011;335;48.694;9.120;2023-11-21T08:41:52;1.33;;;1.23;;
703;SDS011;335;48.694;9.120;2023-11-21T08:44:17;1.37;;;0.77;;
703;SDS011;335;48.694;9.120;2023-11-21T08:46:47;1.10;;;1.10;;
703;SDS011;335;48.694;9.120;2023-11-21T08:49:12;2.20;;;1.13;;
703;SDS011;335;48.694;9.120;2023-11-21T08:51:39;0.90;;;0.90;;
703;SDS011;335;48.694;9.120;2023-11-21T08:54:04;1.13;;;0.90;;
703;SDS011;335;48.694;9.120;2023-11-21T08:56:33;2.30;;;1.00;;
703;SDS011;335;48.694;9.120;2023-11-21T08:59:01;1.13;;;1.00;;
703;SDS011;335;48.694;9.120;2023-11-21T09:01:28;2.90;;;0.80;;
703;SDS011;335;48.694;9.120;2023-11-21T09:03:56;1.33;;;0.80;;
703;SDS011;335;48.694;9.120;2023-11-21T09:06:22;0.80;;;0.80;;
703;SDS011;335;48.694;9.120;2023-11-21T09:08:48;1.10;;;0.80;;
703;SDS011;335;48.694;9.120;2023-11-21T09:11:13;0.90;;;0.60;;
703;SDS011;335;48.694;9.120;2023-11-21T09:13:38;0.70;;;0.70;;
703;SDS011;335;48.694;9.120;2023-11-21T09:16:04;1.33;;;0.93;;
703;SDS011;335;48.694;9.120;2023-11-21T09:18:30;0.70;;;0.70;;
703;SDS011;335;48.694;9.120;2023-11-21T09:20:56;1.13;;;1.13;;
703;SDS011;335;48.694;9.120;2023-11-21T09:23:21;0.87;;;0.87;;
703;SDS011;335;48.694;9.120;2023-11-21T09:25:46;0.80;;;0.80;;
703;SDS011;335;48.694;9.120;2023-11-21T09:28:14;1.20;;;1.10;;
703;SDS011;335;48.694;9.120;2023-11-21T09:30:40;1.30;;;1.07;;
703;SDS011;335;48.694;9.120;2023-11-21T09:33:05;1.97;;;1.87;;
703;SDS011;335;48.694;9.120;2023-11-21T09:35:31;1.57;;;1.47;;
703;SDS011;335;48.694;9.120;2023-11-21T09:37:57;4.03;;;3.27;;
703;SDS011;335;48.694;9.120;2023-11-21T09:40:22;1.00;;;1.00;;
703;SDS011;335;48.694;9.120;2023-11-21T09:42:55;1.23;;;1.13;;
703;SDS011;335;48.694;9.120;2023-11-21T09:45:32;0.73;;;0.73;;
703;SDS011;335;48.694;9.120;2023-11-21T09:47:59;0.70;;;0.70;;
703;SDS011;335;48.694;9.120;2023-11-21T09:50:25;0.90;;;0.73;;
703;SDS011;335;48.694;9.120;2023-11-21T09:53:06;0.80;;;0.80;;
703;SDS011;335;48.694;9.120;2023-11-21T09:55:38;1.47;;;0.90;;
703;SDS011;335;48.694;9.120;2023-11-21T09:58:05;1.33;;;0.73;;
703;SDS011;335;48.694;9.120;2023-11-21T10:00:36;0.53;;;0.53;;
703;SDS011;335;48.694;9.120;2023-11-21T10:03:11;0.53;;;0.43;;
703;SDS011;335;48.694;9.120;2023-11-21T10:05:37;0.70;;;0.70;;
703;SDS011;335;48.694;9.120;2023-11-21T10:08:09;0.73;;;0.70;;
703;SDS011;335;48.694;9.120;2023-11-21T10:10:45;1.13;;;0.60;;
703;SDS011;335;48.694;9.120;2023-11-21T10:13:13;1.27;;;0.53;;
703;SDS011;335;48.694;9.120;2023-11-21T10:15:41;1.57;;;0.70;;
703;SDS011;335;48.694;9.120;2023-11-21T10:18:12;0.80;;;0.80;;
703;SDS011;335;48.694;9.120;2023-11-21T10:20:43;0.80;;;0.70;;
703;SDS011;335;48.694;9.120;2023-11-21T10:23:11;0.50;;;0.50;;
703;SDS011;335;48.694;9.120;2023-11-21T10:25:38;1.20;;;1.20;;
703;SDS011;335;48.694;9.120;2023-11-21T10:28:03;1.20;;;0.87;;
703;SDS011;335;48.694;9.120;2023-11-21T10:30:34;1.07;;;1.07;;
703;SDS011;335;48.694;9.120;2023-11-21T10:33:03;2.67;;;2.47;;
703;SDS011;335;48.694;9.120;2023-11-21T10:35:45;1.23;;;1.13;;
703;SDS011;335;48.694;9.120;2023-11-21T10:38:23;0.90;;;0.90;;
703;SDS011;335;48.694;9.120;2023-11-21T10:40:50;0.53;;;0.53;;
703;SDS011;335;48.694;9.120;2023-11-21T10:43:16;0.50;;;0.40;;
703;SDS011;335;48.694;9.120;2023-11-21T10:45:42;0.90;;;0.63;;
703;SDS011;335;48.694;9.120;2023-11-21T10:48:08;0.73;;;0.73;;
703;SDS011;335;48.694;9.120;2023-11-21T10:50:35;2.00;;;1.90;;
703;SDS011;335;48.694;9.120;2023-11-21T10:53:01;0.80;;;0.80;;
703;SDS011;335;48.694;9.120;2023-11-21T10:55:30;1.40;;;1.30;;
703;SDS011;335;48.694;9.120;2023-11-21T10:58:00;0.80;;;0.80;;
703;SDS011;335;48.694;9.120;2023-11-21T11:00:29;1.60;;;1.50;;
703;SDS011;335;48.694;9.120;2023-11-21T11:02:55;0.70;;;0.60;;
703;SDS011;335;48.694;9.120;2023-11-21T11:05:22;1.37;;;1.07;;
703;SDS011;335;48.694;9.120;2023-11-21T11:08:05;1.53;;;0.80;;
703;SDS011;335;48.694;9.120;2023-11-21T11:10:31;0.60;;;0.60;;
703;SDS011;335;48.694;9.120;2023-11-21T11:12:57;1.10;;;0.57;;
703;SDS011;335;48.694;9.120;2023-11-21T11:15:23;0.73;;;0.73;;
703;SDS011;335;48.694;9.120;2023-11-21T11:17:49;0.63;;;0.63;;
703;SDS011;335;48.694;9.120;2023-11-21T11:20:16;0.60;;;0.60;;
703;SDS011;335;48.694;9.120;2023-11-21T11:22:44;1.70;;;0.90;;
703;SDS011;335;48.694;9.120;2023-11-21T11:28:08;0.80;;;0.80;;
703;SDS011;335;48.694;9.120;2023-11-21T11:33:39;0.83;;;0.70;;
703;SDS011;335;48.694;9.120;2023-11-21T11:36:31;1.50;;;1.40;;
703;SDS011;335;48.694;9.120;2023-11-21T11:38:59;0.53;;;0.50;;
703;SDS011;335;48.694;9.120;2023-11-21T11:41:28;0.60;;;0.60;;
703;SDS011;335;48.694;9.120;2023-11-21T11:43:57;0.53;;;0.53;;
703;SDS011;335;48.694;9.120;2023-11-21T11:49:10;1.23;;;1.00;;
703;SDS011;335;48.694;9.120;2023-11-21T11:51:36;0.93;;;0.90;;
703;SDS011;335;48.694;9.120;2023-11-21T11:54:01;0.80;;;0.80;;
703;SDS011;335;48.694;9.120;2023-11-21T11:56:31;0.60;;;0.60;;
703;SDS011;335;48.694;9.120;2023-11-21T11:58:59;1.50;;;1.40;;
703;SDS011;335;48.694;9.120;2023-11-21T12:01:27;1.00;;;1.00;;
703;SDS011;335;48.694;9.120;2023-11-21T12:06:56;0.83;;;0.83;;
703;SDS011;335;48.694;9.120;2023-11-21T12:09:24;0.80;;;0.80;;
703;SDS011;335;48.694;9.120;2023-11-21T12:11:51;0.80;;;0.80;;
703;SDS011;335;48.694;9.120;2023-11-21T12:14:17;2.20;;;0.90;;
703;SDS011;335;48.694;9.120;2023-11-21T12:16:43;0.87;;;0.83;;
703;SDS011;335;48.694;9.120;2023-11-21T12:19:09;0.73;;;0.73;;
703;SDS011;335;48.694;9.120;2023-11-21T12:21:36;0.80;;;0.80;;
703;SDS011;335;48.694;9.120;2023-11-21T12:24:01;0.90;;;0.90;;
703;SDS011;335;48.694;9.120;2023-11-21T12:26:28;1.20;;;1.20;;
703;SDS011;335;48.694;9.120;2023-11-21T12:28:53;1.23;;;1.13;;
703;SDS011;335;48.694;9.120;2023-11-21T12:31:21;1.20;;;1.20;;
703;SDS011;335;48.694;9.120;2023-11-21T12:33:47;1.30;;;1.20;;
703;SDS011;335;48.694;9.120;2023-11-21T12:36:13;1.33;;;1.33;;
703;SDS011;335;48.694;9.120;2023-11-21T12:38:38;0.60;;;0.60;;
703;SDS011;335;48.694;9.120;2023-11-21T12:41:03;1.20;;;1.13;;
703;SDS011;335;48.694;9.120;2023-11-21T12:43:29;1.10;;;1.10;;
703;SDS011;335;48.694;9.120;2023-11-21T12:46:08;1.10;;;1.10;;
703;SDS011;335;48.694;9.120;2023-11-21T12:48:38;1.00;;;1.00;;
703;SDS011;335;48.694;9.120;2023-11-21T12:51:05;1.57;;;1.47;;
703;SDS011;335;48.694;9.120;2023-11-21T12:53:31;1.53;;;1.10;;
703;SDS011;335;48.694;9.120;2023-11-21T12:56:07;0.80;;;0.80;;
703;SDS011;335;48.694;9.120;2023-11-21T12:58:34;1.00;;;1.00;;
703;SDS011;335;48.694;9.120;2023-11-21T13:01:01;1.10;;;1.10;;
703;SDS011;335;48.694;9.120;2023-11-21T13:03:29;0.80;;;0.80;;
703;SDS011;335;48.694;9.120;2023-11-21T13:05:55;0.70;;;0.70;;
703;SDS011;335;48.694;9.120;2023-11-21T13:08:22;0.50;;;0.43;;
703;SDS011;335;48.694;9.120;2023-11-21T13:10:49;0.50;;;0.50;;
703;SDS011;335;48.694;9.120;2023-11-21T13:13:16;0.57;;;0.57;;
703;SDS011;335;48.694;9.120;2023-11-21T13:15:55;0.80;;;0.80;;
703;SDS011;335;48.694;9.120;2023-11-21T13:18:21;1.47;;;1.13;;
703;SDS011;335;48.694;9.120;2023-11-21T13:20:46;1.50;;;1.40;;
703;SDS011;335;48.694;9.120;2023-11-21T13:23:12;1.93;;;1.50;;
703;SDS011;335;48.694;9.120;2023-11-21T13:25:38;1.83;;;1.83;;
703;SDS011;335;48.694;9.120;2023-11-21T13:28:05;2.03;;;1.87;;
703;SDS011;335;48.694;9.120;2023-11-21T13:30:31;1.90;;;1.80;;
703;SDS011;335;48.694;9.120;2023-11-21T13:33:03;0.90;;;0.90;;
703;SDS011;335;48.694;9.120;2023-11-21T13:35:33;1.40;;;1.30;;
703;SDS011;335;48.694;9.120;2023-11-21T13:38:12;1.87;;;1.77;;
703;SDS011;335;48.694;9.120;2023-11-21T13:40:39;2.80;;;2.70;;
703;SDS011;335;48.694;9.120;2023-11-21T13:43:11;0.97;;;0.97;;
703;SDS011;335;48.694;9.120;2023-11-21T13:45:37;0.63;;;0.63;;
703;SDS011;335;48.694;9.120;2023-11-21T13:48:06;0.80;;;0.70;;
703;SDS011;335;48.694;9.120;2023-11-21T13:50:41;0.53;;;0.53;;
703;SDS011;335;48.694;9.120;2023-11-21T13:53:32;0.73;;;0.73;;
703;SDS011;335;48.694;9.120;2023-11-21T13:55:59;0.43;;;0.43;;
703;SDS011;335;48.694;9.120;2023-11-21T13:58:24;0.40;;;0.30;;
703;SDS011;335;48.694;9.120;2023-11-21T14:01:04;0.50;;;0.50;;
703;SDS011;335;48.694;9.120;2023-11-21T14:03:31;0.30;;;0.30;;
703;SDS011;335;48.694;9.120;2023-11-21T14:06:16;0.40;;;0.40;;
703;SDS011;335;48.694;9.120;2023-11-21T14:08:49;0.60;;;0.30;;
703;SDS011;335;48.694;9.120;2023-11-21T14:11:14;0.40;;;0.40;;
703;SDS011;335;48.694;9.120;2023-11-21T14:13:42;0.40;;;0.40;;
703;SDS011;335;48.694;9.120;2023-11-21T14:16:11;0.50;;;0.50;;
703;SDS011;335;48.694;9.120;2023-11-21T14:18:36;0.73;;;0.73;;
703;SDS011;335;48.694;9.120;2023-11-21T14:21:08;0.57;;;0.57;;
703;SDS011;335;48.694;9.120;2023-11-21T14:23:35;0.80;;;0.80;;
703;SDS011;335;48.694;9.120;2023-11-21T14:26:03;1.03;;;0.90;;
703;SDS011;335;48.694;9.120;2023-11-21T14:28:29;0.90;;;0.90;;
703;SDS011;335;48.694;9.120;2023-11-21T14:30:54;0.97;;;0.97;;
703;SDS011;335;48.694;9.120;2023-11-21T14:33:19;1.10;;;1.10;;
703;SDS011;335;48.694;9.120;2023-11-21T14:35:45;1.00;;;1.00;;
703;SDS011;335;48.694;9.120;2023-11-21T14:38:11;1.50;;;1.50;;
703;SDS011;335;48.694;9.120;2023-11-21T14:40:39;1.47;;;1.40;;
703;SDS011;335;48.694;9.120;2023-11-21T14:43:04;1.73;;;1.63;;
703;SDS011;335;48.694;9.120;2023-11-21T14:45:33;1.80;;;1.70;;
703;SDS011;335;48.694;9.120;2023-11-21T14:47:59;1.63;;;1.63;;
703;SDS011;335;48.694;9.120;2023-11-21T14:50:30;1.57;;;1.47;;
703;SDS011;335;48.694;9.120;2023-11-21T14:53:11;1.80;;;1.80;;
703;SDS011;335;48.694;9.120;2023-11-21T14:55:38;1.50;;;1.40;;
703;SDS011;335;48.694;9.120;2023-11-21T14:58:18;2.17;;;2.07;;
703;SDS011;335;48.694;9.120;2023-11-21T15:00:52;1.73;;;1.60;;
703;SDS011;335;48.694;9.120;2023-11-21T15:03:22;1.80;;;1.70;;
703;SDS011;335;48.694;9.120;2023-11-21T15:06:01;2.20;;;2.10;;
703;SDS011;335;48.694;9.120;2023-11-21T15:08:44;1.90;;;1.80;;
703;SDS011;335;48.694;9.120;2023-11-21T15:11:10;2.27;;;2.17;;
703;SDS011;335;48.694;9.120;2023-11-21T15:13:39;2.00;;;1.90;;
703;SDS011;335;48.694;9.120;2023-11-21T15:16:06;2.33;;;2.23;;
703;SDS011;335;48.694;9.120;2023-11-21T15:18:33;3.20;;;2.47;;
703;SDS011;335;48.694;9.120;2023-11-21T15:21:00;2.50;;;2.40;;
703;SDS011;335;48.694;9.120;2023-11-21T15:23:26;2.27;;;2.17;;
703;SDS011;335;48.694;9.120;2023-11-21T15:25:53;2.43;;;2.33;;
703;SDS011;335;48.694;9.120;2023-11-21T15:28:18;2.13;;;2.03;;
703;SDS011;335;48.694;9.120;2023-11-21T15:30:44;2.93;;;2.70;;
703;SDS011;335;48.694;9.120;2023-11-21T15:33:12;2.30;;;2.20;;
703;SDS011;335;48.694;9.120;2023-11-21T15:35:38;2.37;;;2.27;;
703;SDS011;335;48.694;9.120;2023-11-21T15:38:06;2.33;;;2.23;;
703;SDS011;335;48.694;9.120;2023-11-21T15:40:33;2.50;;;2.40;;
703;SDS011;335;48.694;9.120;2023-11-21T15:42:58;2.63;;;2.53;;
703;SDS011;335;48.694;9.120;2023-11-21T15:45:24;2.50;;;2.40;;
703;SDS011;335;48.694;9.120;2023-11-21T15:47:51;2.80;;;2.70;;
703;SDS011;335;48.694;9.120;2023-11-21T15:50:17;3.90;;;3.70;;
703;SDS011;335;48.694;9.120;2023-11-21T15:52:43;3.43;;;3.23;;
703;SDS011;335;48.694;9.120;2023-11-21T15:55:09;3.93;;;3.73;;